Asherton, Texas
Current Conditions -  °F | °C
As of 10:35 PM on Saturday 22 Nov 2014 (Local Time) from KCZT Reporting Station
Clear Clear  
Wind Chill: 13°   Ceiling: Unl
Heat Index: 13°   Visibility: 10mi
Dew Point: 11°   Wind: 6mph
Humidity: 88%   Direction: 250°WSW
Pressure: 29.78"   Gusts: NA
Location:  28.44°N, 99.76°W
Report Text: KCZT 230435Z AUTO 25005KT 10SM CLR 13/11 A2978 RMK AO2
Loading
Personal Weather Stations






























Interactive Weather Map New forecast layout! Learn more

10-Day Weather Forecast

Advertisements
Track Severe Weather on mobile